Time;durP1;ratioP1;P1;durP2;ratioP2;P2;SDS_P1;SDS_P2;PMS_P1;PMS_P2;Temp;Humidity;BMP_temperature;BMP_pressure;BME280_temperature;BME280_humidity;BME280_pressure;Samples;Min_cycle;Max_cycle;Signal;HPM_P1;HPM_P2
2024/01/25 06:00:45;;;;;;;15.77;4.30;;;;;;;;;;1738094;28;20541;-77
2024/01/25 06:01:36;;;;;;;19.35;5.30;;;;;;;;;;1741056;28;20207;-78
2024/01/25 06:02:27;;;;;;;16.73;3.70;;;;;;;;;;1738905;28;20199;-78
2024/01/25 06:03:19;;;;;;;17.85;3.67;;;;;;;;;;1740296;28;20274;-78
2024/01/25 06:04:10;;;;;;;19.30;3.95;;;;;;;;;;1738298;28;20214;-78
2024/01/25 06:05:02;;;;;;;12.98;4.38;;;;;;;;;;1734192;28;20203;-77
2024/01/25 06:05:53;;;;;;;20.00;4.18;;;;;;;;;;1740048;28;20202;-78
2024/01/25 06:06:45;;;;;;;13.73;3.60;;;;;;;;;;1741104;28;20591;-77
2024/01/25 06:07:37;;;;;;;14.68;4.03;;;;;;;;;;1741092;28;20231;-78
2024/01/25 06:08:28;;;;;;;16.77;4.45;;;;;;;;;;1740918;28;20199;-78
2024/01/25 06:09:20;;;;;;;11.73;4.20;;;;;;;;;;1740994;28;20222;-78
2024/01/25 06:10:11;;;;;;;14.52;4.03;;;;;;;;;;1738302;28;20312;-78
2024/01/25 06:11:03;;;;;;;17.42;3.72;;;;;;;;;;1739192;28;20218;-78
2024/01/25 06:11:54;;;;;;;20.67;4.45;;;;;;;;;;1740410;28;20199;-78
2024/01/25 06:12:46;;;;;;;21.05;5.20;;;;;;;;;;1740936;28;20214;-77
2024/01/25 06:13:37;;;;;;;15.88;4.38;;;;;;;;;;1740860;28;20226;-77
2024/01/25 06:14:28;;;;;;;16.67;3.95;;;;;;;;;;1741035;28;20600;-78
2024/01/25 06:15:21;;;;;;;15.43;4.00;;;;;;;;;;1740850;28;20213;-79
2024/01/25 06:16:13;;;;;;;15.57;4.32;;;;;;;;;;1740592;28;20573;-78
2024/01/25 06:17:05;;;;;;;17.35;4.20;;;;;;;;;;1740796;28;20612;-78
2024/01/25 06:17:56;;;;;;;14.57;4.22;;;;;;;;;;1740880;28;20225;-84
2024/01/25 06:18:48;;;;;;;13.35;4.82;;;;;;;;;;1740950;28;20227;-84
2024/01/25 06:19:40;;;;;;;16.50;5.20;;;;;;;;;;1740240;28;20203;-84
2024/01/25 06:20:31;;;;;;;15.80;5.03;;;;;;;;;;1737397;28;20199;-84
2024/01/25 06:21:22;;;;;;;19.52;5.63;;;;;;;;;;1740607;28;20272;-84
2024/01/25 06:22:16;;;;;;;14.18;5.50;;;;;;;;;;1741112;28;20199;-84
2024/01/25 06:23:07;;;;;;;15.18;5.65;;;;;;;;;;1740979;28;20689;-85
2024/01/25 06:23:58;;;;;;;13.40;5.32;;;;;;;;;;1740802;28;20245;-84
2024/01/25 06:24:50;;;;;;;19.25;6.15;;;;;;;;;;1738889;28;20207;-84
2024/01/25 06:25:42;;;;;;;22.45;6.05;;;;;;;;;;1741225;28;20207;-84
2024/01/25 06:26:36;;;;;;;17.98;6.53;;;;;;;;;;1740876;28;20286;-84
2024/01/25 06:27:28;;;;;;;14.88;4.97;;;;;;;;;;1740818;28;20211;-84
2024/01/25 06:28:19;;;;;;;16.20;6.45;;;;;;;;;;1740561;28;20206;-84
2024/01/25 06:29:12;;;;;;;17.38;5.63;;;;;;;;;;1740876;28;20180;-84
2024/01/25 06:30:09;;;;;;;18.55;5.70;;;;;;;;;;1740886;28;20195;-84
2024/01/25 06:31:02;;;;;;;15.95;5.22;;;;;;;;;;1739878;28;20604;-84
2024/01/25 06:31:55;;;;;;;17.27;4.50;;;;;;;;;;1740949;28;20230;-84
2024/01/25 06:32:48;;;;;;;15.20;5.18;;;;;;;;;;1738735;28;20559;-85
2024/01/25 06:33:39;;;;;;;19.83;4.95;;;;;;;;;;1734907;28;20261;-85
2024/01/25 06:34:30;;;;;;;16.02;5.18;;;;;;;;;;1740960;28;20203;-86
2024/01/25 06:35:22;;;;;;;13.43;4.22;;;;;;;;;;1740872;28;20203;-84
2024/01/25 06:36:15;;;;;;;20.17;5.75;;;;;;;;;;1740957;28;20210;-85
2024/01/25 06:37:07;;;;;;;16.88;5.65;;;;;;;;;;1741311;28;20818;-85
2024/01/25 06:37:58;;;;;;;14.50;4.88;;;;;;;;;;1740667;28;20235;-84
2024/01/25 06:38:49;;;;;;;18.00;6.40;;;;;;;;;;1740726;28;20623;-83
2024/01/25 06:39:41;;;;;;;14.52;5.25;;;;;;;;;;1740519;28;20199;-83
2024/01/25 06:40:32;;;;;;;13.52;5.88;;;;;;;;;;1739783;28;20200;-88
2024/01/25 06:41:24;;;;;;;17.38;4.95;;;;;;;;;;1740991;28;20617;-86
2024/01/25 06:42:16;;;;;;;20.58;6.45;;;;;;;;;;1740887;28;20605;-86
2024/01/25 06:43:07;;;;;;;19.13;5.53;;;;;;;;;;1741025;28;20310;-87
2024/01/25 06:43:59;;;;;;;25.40;6.22;;;;;;;;;;1741163;28;20210;-86
2024/01/25 06:44:51;;;;;;;19.13;4.70;;;;;;;;;;1740532;28;20726;-86
2024/01/25 06:45:42;;;;;;;21.27;5.20;;;;;;;;;;1740083;28;20203;-86
2024/01/25 06:46:35;;;;;;;17.67;5.43;;;;;;;;;;1739985;28;20188;-86
2024/01/25 06:47:27;;;;;;;21.85;4.72;;;;;;;;;;1740805;28;20725;-86
2024/01/25 06:48:19;;;;;;;14.23;4.88;;;;;;;;;;1740801;28;20234;-86
2024/01/25 06:49:10;;;;;;;21.15;4.50;;;;;;;;;;1740957;28;20215;-86
2024/01/25 06:50:02;;;;;;;20.90;4.90;;;;;;;;;;1740906;28;20199;-86
2024/01/25 06:50:54;;;;;;;15.05;4.40;;;;;;;;;;1740514;28;20195;-86
2024/01/25 06:51:45;;;;;;;18.50;4.45;;;;;;;;;;1734019;28;20196;-86
2024/01/25 06:52:36;;;;;;;14.93;4.03;;;;;;;;;;1741699;28;20289;-86
2024/01/25 06:53:29;;;;;;;21.95;5.22;;;;;;;;;;1742092;28;20306;-86
2024/01/25 06:54:20;;;;;;;18.30;4.60;;;;;;;;;;1742126;28;20590;-86
2024/01/25 06:55:11;;;;;;;15.32;4.57;;;;;;;;;;1742079;28;20207;-86
2024/01/25 06:56:03;;;;;;;12.13;3.92;;;;;;;;;;1742133;28;20195;-86
2024/01/25 06:56:56;;;;;;;14.23;4.43;;;;;;;;;;1741879;28;20754;-86
2024/01/25 06:57:48;;;;;;;15.73;5.00;;;;;;;;;;1742008;28;20234;-86
2024/01/25 06:58:39;;;;;;;17.55;5.35;;;;;;;;;;1742200;28;20282;-86
2024/01/25 06:59:30;;;;;;;14.65;4.72;;;;;;;;;;1742387;28;20672;-86
2024/01/25 07:00:22;;;;;;;12.52;5.00;;;;;;;;;;1742367;28;20671;-86
2024/01/25 07:01:14;;;;;;;14.65;4.60;;;;;;;;;;1742428;28;20214;-86
2024/01/25 07:02:05;;;;;;;13.40;4.00;;;;;;;;;;1742562;28;20262;-86
2024/01/25 07:02:58;;;;;;;12.05;4.15;;;;;;;;;;1742513;28;20664;-86
2024/01/25 07:03:50;;;;;;;15.55;5.03;;;;;;;;;;1742452;28;20706;-86
2024/01/25 07:04:41;;;;;;;18.92;4.05;;;;;;;;;;1742627;28;20211;-86
2024/01/25 07:05:35;;;;;;;16.75;4.38;;;;;;;;;;1742596;28;20203;-86
2024/01/25 07:06:26;;;;;;;14.23;4.35;;;;;;;;;;1742540;28;20230;-86
2024/01/25 07:07:17;;;;;;;15.82;5.15;;;;;;;;;;1742461;28;20267;-86
2024/01/25 07:08:13;;;;;;;18.63;4.63;;;;;;;;;;1742127;28;20266;-86
2024/01/25 07:09:04;;;;;;;14.93;4.35;;;;;;;;;;1742499;28;20199;-86
2024/01/25 07:09:57;;;;;;;17.95;4.50;;;;;;;;;;1742374;28;20199;-86
2024/01/25 07:10:48;;;;;;;16.70;4.43;;;;;;;;;;1740459;28;20199;-86
2024/01/25 07:11:39;;;;;;;13.15;3.55;;;;;;;;;;1742760;28;20200;-86
2024/01/25 07:12:31;;;;;;;20.23;4.15;;;;;;;;;;1742619;28;20234;-86
2024/01/25 07:13:22;;;;;;;14.73;4.85;;;;;;;;;;1742629;28;20203;-87
2024/01/25 07:14:15;;;;;;;14.43;4.38;;;;;;;;;;1742598;28;20264;-86
2024/01/25 07:15:06;;;;;;;17.50;4.47;;;;;;;;;;1742553;28;20203;-86
2024/01/25 07:15:57;;;;;;;19.35;5.32;;;;;;;;;;1742374;28;20199;-86
2024/01/25 07:16:49;;;;;;;13.23;4.90;;;;;;;;;;1742476;28;20230;-86
2024/01/25 07:17:41;;;;;;;22.33;6.90;;;;;;;;;;1742513;28;20227;-86
2024/01/25 07:18:34;;;;;;;22.42;8.18;;;;;;;;;;1742410;28;20211;-86
2024/01/25 07:19:26;;;;;;;23.35;6.88;;;;;;;;;;1742562;28;20605;-86
2024/01/25 07:20:17;;;;;;;18.40;6.05;;;;;;;;;;1742299;28;20581;-86
2024/01/25 07:21:08;;;;;;;20.13;5.93;;;;;;;;;;1742084;28;20261;-86
2024/01/25 07:22:00;;;;;;;21.33;5.35;;;;;;;;;;1742271;28;20207;-86
2024/01/25 07:22:51;;;;;;;20.58;5.18;;;;;;;;;;1742232;28;20218;-86
2024/01/25 07:23:43;;;;;;;16.48;5.07;;;;;;;;;;1742417;28;20207;-86
2024/01/25 07:24:34;;;;;;;14.40;4.25;;;;;;;;;;1742043;28;20191;-86
2024/01/25 07:25:26;;;;;;;17.77;5.20;;;;;;;;;;1742278;28;20210;-86
2024/01/25 07:26:18;;;;;;;16.92;5.38;;;;;;;;;;1742181;28;20199;-86
2024/01/25 07:27:10;;;;;;;16.98;4.60;;;;;;;;;;1742196;28;20203;-86
2024/01/25 07:28:01;;;;;;;14.80;4.18;;;;;;;;;;1742209;28;20269;-86
2024/01/25 07:28:57;;;;;;;13.23;4.55;;;;;;;;;;1742431;28;20195;-86
2024/01/25 07:29:49;;;;;;;14.95;5.10;;;;;;;;;;1742480;28;20207;-86
2024/01/25 07:30:40;;;;;;;16.30;4.40;;;;;;;;;;1741858;28;20211;-86
2024/01/25 07:31:32;;;;;;;14.20;4.78;;;;;;;;;;1741979;28;20656;-86
2024/01/25 07:32:24;;;;;;;17.08;4.00;;;;;;;;;;1742136;28;20211;-86
2024/01/25 07:33:15;;;;;;;16.40;4.60;;;;;;;;;;1740639;28;20248;-87
2024/01/25 07:34:09;;;;;;;12.25;4.20;;;;;;;;;;1738469;28;20230;-86
2024/01/25 07:35:00;;;;;;;17.52;4.07;;;;;;;;;;1736587;28;20680;-86
2024/01/25 07:35:51;;;;;;;6.45;3.35;;;;;;;;;;1737402;28;20188;-86
2024/01/25 07:36:44;;;;;;;14.13;3.90;;;;;;;;;;1738390;28;20188;-86
2024/01/25 07:37:35;;;;;;;10.90;3.10;;;;;;;;;;1738637;28;20224;-86
2024/01/25 07:38:26;;;;;;;9.05;3.22;;;;;;;;;;1738766;28;20238;-86
2024/01/25 07:39:18;;;;;;;10.93;3.10;;;;;;;;;;1739850;28;20726;-86
2024/01/25 07:40:10;;;;;;;13.95;3.47;;;;;;;;;;1737377;28;20195;-86
2024/01/25 07:41:01;;;;;;;11.70;3.22;;;;;;;;;;1740027;28;20294;-86
2024/01/25 07:41:54;;;;;;;19.40;4.20;;;;;;;;;;1738632;28;20286;-86
2024/01/25 07:42:46;;;;;;;13.45;3.85;;;;;;;;;;1738947;28;20202;-86
2024/01/25 07:43:39;;;;;;;13.48;4.03;;;;;;;;;;1737957;28;20198;-86
2024/01/25 07:44:30;;;;;;;11.23;3.25;;;;;;;;;;1739348;28;20206;-86
2024/01/25 07:45:21;;;;;;;12.98;2.70;;;;;;;;;;1738542;28;20200;-86
2024/01/25 07:46:14;;;;;;;13.15;4.00;;;;;;;;;;1739060;28;20283;-86
2024/01/25 07:47:05;;;;;;;10.82;3.00;;;;;;;;;;1737803;28;20195;-86
2024/01/25 07:47:57;;;;;;;11.38;3.33;;;;;;;;;;1737990;28;20551;-86
2024/01/25 07:48:49;;;;;;;12.23;3.38;;;;;;;;;;1739790;28;20199;-86
2024/01/25 07:49:42;;;;;;;11.00;3.30;;;;;;;;;;1738469;28;20200;-86
2024/01/25 07:50:33;;;;;;;8.35;3.10;;;;;;;;;;1740344;28;20210;-86
2024/01/25 07:51:28;;;;;;;10.98;3.10;;;;;;;;;;1737495;28;20210;-86
2024/01/25 07:52:19;;;;;;;15.85;3.35;;;;;;;;;;1738238;28;20235;-86
2024/01/25 07:53:12;;;;;;;10.38;3.03;;;;;;;;;;1738664;28;20192;-86
2024/01/25 07:54:04;;;;;;;13.15;4.85;;;;;;;;;;1738646;28;20195;-86
2024/01/25 07:54:55;;;;;;;12.13;3.53;;;;;;;;;;1738251;28;20202;-86
2024/01/25 07:55:46;;;;;;;11.20;2.70;;;;;;;;;;1738745;28;20199;-86
2024/01/25 07:56:38;;;;;;;76.38;45.38;;;;;;;;;;1738577;28;20192;-85
2024/01/25 07:57:29;;;;;;;21.80;10.80;;;;;;;;;;1738676;28;20211;-85
2024/01/25 07:58:20;;;;;;;12.18;5.30;;;;;;;;;;1740427;28;20191;-85
2024/01/25 07:59:12;;;;;;;14.18;4.53;;;;;;;;;;1737598;28;20610;-85
2024/01/25 08:00:04;;;;;;;10.68;4.00;;;;;;;;;;1740192;28;20199;-85
2024/01/25 08:00:55;;;;;;;12.32;3.00;;;;;;;;;;1736858;28;20196;-85
2024/01/25 08:01:47;;;;;;;12.18;3.90;;;;;;;;;;1740165;28;20282;-85
2024/01/25 08:02:40;;;;;;;12.05;3.60;;;;;;;;;;1738073;28;20196;-85
2024/01/25 08:03:31;;;;;;;8.98;3.45;;;;;;;;;;1738722;28;20222;-85
2024/01/25 08:04:23;;;;;;;14.55;4.03;;;;;;;;;;1738018;28;20211;-85
2024/01/25 08:05:15;;;;;;;15.63;3.38;;;;;;;;;;1738759;28;20665;-86
2024/01/25 08:06:06;;;;;;;9.18;3.60;;;;;;;;;;1738673;28;20207;-85
2024/01/25 08:06:59;;;;;;;12.82;3.85;;;;;;;;;;1738156;28;20245;-85
2024/01/25 08:07:50;;;;;;;14.00;4.18;;;;;;;;;;1738585;28;20237;-86
2024/01/25 08:08:42;;;;;;;11.35;3.33;;;;;;;;;;1737694;28;20198;-85
2024/01/25 08:09:33;;;;;;;12.40;3.50;;;;;;;;;;1739465;28;20211;-85
2024/01/25 08:10:26;;;;;;;10.63;3.55;;;;;;;;;;1737115;28;20650;-85
2024/01/25 08:11:19;;;;;;;12.25;3.53;;;;;;;;;;1739682;28;20281;-85
2024/01/25 08:12:11;;;;;;;15.02;3.97;;;;;;;;;;1737443;28;20274;-86
2024/01/25 08:13:03;;;;;;;9.68;4.07;;;;;;;;;;1741017;28;20199;-86
2024/01/25 08:13:54;;;;;;;13.35;4.15;;;;;;;;;;1738702;28;20199;-85
2024/01/25 08:14:45;;;;;;;15.00;3.67;;;;;;;;;;1737959;28;20286;-86
2024/01/25 08:15:37;;;;;;;9.40;3.60;;;;;;;;;;1738890;28;20672;-86
2024/01/25 08:16:28;;;;;;;14.85;3.70;;;;;;;;;;1737118;28;20203;-86
2024/01/25 08:17:20;;;;;;;11.57;4.55;;;;;;;;;;1739822;28;20277;-86
2024/01/25 08:18:12;;;;;;;12.57;3.85;;;;;;;;;;1737372;28;20699;-85
2024/01/25 08:19:03;;;;;;;7.57;3.03;;;;;;;;;;1740068;28;20203;-86
2024/01/25 08:19:55;;;;;;;11.00;3.33;;;;;;;;;;1738143;28;20188;-86
2024/01/25 08:20:47;;;;;;;12.27;3.80;;;;;;;;;;1737915;28;20196;-86
2024/01/25 08:21:39;;;;;;;9.80;3.90;;;;;;;;;;1736987;28;20619;-86
2024/01/25 08:22:31;;;;;;;8.15;3.47;;;;;;;;;;1738348;28;20216;-86
2024/01/25 08:23:22;;;;;;;12.98;3.17;;;;;;;;;;1738398;28;20199;-86
2024/01/25 08:24:14;;;;;;;11.27;3.70;;;;;;;;;;1737807;28;20199;-86
2024/01/25 08:25:05;;;;;;;9.55;3.25;;;;;;;;;;1737076;28;20226;-86
2024/01/25 08:25:56;;;;;;;8.32;3.08;;;;;;;;;;1738215;28;20222;-86
2024/01/25 08:26:49;;;;;;;10.38;3.65;;;;;;;;;;1741152;28;20205;-86
2024/01/25 08:27:40;;;;;;;13.60;3.28;;;;;;;;;;1737030;28;20223;-86
2024/01/25 08:28:32;;;;;;;9.68;3.00;;;;;;;;;;1737455;28;20196;-86
2024/01/25 08:29:23;;;;;;;7.22;3.00;;;;;;;;;;1738113;28;20199;-86
2024/01/25 08:30:14;;;;;;;11.80;3.22;;;;;;;;;;1739240;28;20196;-86
2024/01/25 08:31:07;;;;;;;14.80;4.00;;;;;;;;;;1737756;28;20196;-86
2024/01/25 08:31:58;;;;;;;9.18;3.05;;;;;;;;;;1737844;28;20647;-86
2024/01/25 08:32:49;;;;;;;12.27;3.20;;;;;;;;;;1738438;28;20207;-86
2024/01/25 08:33:43;;;;;;;11.98;4.47;;;;;;;;;;1738388;28;20188;-86
2024/01/25 08:34:34;;;;;;;12.70;3.50;;;;;;;;;;1738506;28;20295;-86
2024/01/25 08:35:26;;;;;;;9.30;3.75;;;;;;;;;;1738250;28;20588;-86
2024/01/25 08:36:20;;;;;;;13.90;4.20;;;;;;;;;;1738380;28;20682;-86
2024/01/25 08:37:11;;;;;;;16.55;4.35;;;;;;;;;;1737208;28;20216;-86
2024/01/25 08:38:03;;;;;;;11.25;3.85;;;;;;;;;;1740033;28;20199;-86
2024/01/25 08:38:54;;;;;;;60.58;44.70;;;;;;;;;;1738989;28;20206;-87
2024/01/25 08:39:49;;;;;;;54.83;41.00;;;;;;;;;;1734892;28;20246;-86
2024/01/25 08:40:40;;;;;;;44.38;29.38;;;;;;;;;;1735442;28;20196;-87
2024/01/25 08:41:31;;;;;;;29.05;21.33;;;;;;;;;;1734739;28;20988;-86
2024/01/25 08:42:23;;;;;;;30.50;20.48;;;;;;;;;;1737241;28;20206;-86
2024/01/25 08:43:14;;;;;;;19.75;12.70;;;;;;;;;;1737215;28;20199;-86
2024/01/25 08:44:05;;;;;;;24.10;12.55;;;;;;;;;;1738655;28;20234;-87
2024/01/25 08:44:57;;;;;;;18.00;10.38;;;;;;;;;;1738452;28;20250;-86
2024/01/25 08:45:48;;;;;;;18.33;8.00;;;;;;;;;;1740254;28;20678;-87
2024/01/25 08:46:42;;;;;;;16.77;7.38;;;;;;;;;;1738592;28;20192;-86
2024/01/25 08:47:33;;;;;;;15.18;8.73;;;;;;;;;;1737784;28;20629;-86
2024/01/25 08:48:25;;;;;;;15.40;7.43;;;;;;;;;;1737224;28;20230;-87
2024/01/25 08:49:17;;;;;;;11.48;5.55;;;;;;;;;;1739246;28;20199;-86
2024/01/25 08:50:10;;;;;;;18.70;9.65;;;;;;;;;;1738404;28;20210;-86
2024/01/25 08:51:01;;;;;;;17.83;6.53;;;;;;;;;;1737503;28;20195;-87
2024/01/25 08:51:55;;;;;;;15.82;6.38;;;;;;;;;;1738730;28;20188;-86
2024/01/25 08:52:46;;;;;;;10.05;4.30;;;;;;;;;;1738759;28;20231;-86
2024/01/25 08:53:37;;;;;;;17.55;5.43;;;;;;;;;;1739758;28;20198;-87
2024/01/25 08:54:29;;;;;;;18.85;5.45;;;;;;;;;;1737357;28;20211;-87
2024/01/25 08:55:20;;;;;;;14.43;5.22;;;;;;;;;;1739736;28;20202;-86
2024/01/25 08:56:12;;;;;;;12.13;5.43;;;;;;;;;;1737674;28;20266;-86
2024/01/25 08:57:03;;;;;;;13.85;4.40;;;;;;;;;;1739875;28;20207;-87
2024/01/25 08:57:54;;;;;;;17.85;6.18;;;;;;;;;;1737442;28;20297;-87
2024/01/25 08:58:50;;;;;;;14.02;5.45;;;;;;;;;;1738999;28;20249;-87
2024/01/25 08:59:41;;;;;;;14.43;6.18;;;;;;;;;;1739550;28;20225;-87
2024/01/25 09:00:32;;;;;;;13.98;4.40;;;;;;;;;;1737501;28;20560;-87
2024/01/25 09:01:24;;;;;;;12.68;4.35;;;;;;;;;;1738591;28;20192;-87
2024/01/25 09:02:15;;;;;;;10.68;3.65;;;;;;;;;;1737372;28;20234;-87
2024/01/25 09:03:08;;;;;;;11.00;3.95;;;;;;;;;;1738838;28;20685;-87
2024/01/25 09:04:02;;;;;;;20.73;5.75;;;;;;;;;;1735244;28;20200;-87
2024/01/25 09:04:53;;;;;;;13.55;3.78;;;;;;;;;;1738240;28;20270;-87
2024/01/25 09:05:45;;;;;;;13.35;4.15;;;;;;;;;;1740608;28;20198;-87
2024/01/25 09:06:36;;;;;;;13.93;4.22;;;;;;;;;;1746433;28;20211;-87
2024/01/25 09:07:29;;;;;;;8.95;3.75;;;;;;;;;;1742701;28;20195;-87
2024/01/25 09:08:21;;;;;;;10.18;3.85;;;;;;;;;;1740997;28;20213;-86
2024/01/25 09:09:12;;;;;;;16.77;4.38;;;;;;;;;;1740955;28;20210;-87
2024/01/25 09:10:04;;;;;;;10.32;3.15;;;;;;;;;;1741333;28;20272;-87
2024/01/25 09:10:56;;;;;;;12.50;3.35;;;;;;;;;;1741085;28;20202;-87
2024/01/25 09:11:47;;;;;;;11.07;3.70;;;;;;;;;;1741412;28;20207;-87
2024/01/25 09:12:39;;;;;;;10.73;4.38;;;;;;;;;;1741404;28;20211;-87
2024/01/25 09:13:32;;;;;;;16.25;4.47;;;;;;;;;;1741339;28;20745;-87
2024/01/25 09:14:23;;;;;;;14.20;3.30;;;;;;;;;;1741163;28;20218;-87
2024/01/25 09:15:14;;;;;;;12.05;3.88;;;;;;;;;;1740584;28;20237;-87
2024/01/25 09:16:06;;;;;;;12.13;3.35;;;;;;;;;;1740701;28;20199;-87
2024/01/25 09:16:58;;;;;;;12.85;3.80;;;;;;;;;;1740835;28;20199;-87
2024/01/25 09:17:50;;;;;;;12.48;4.25;;;;;;;;;;1741024;28;20249;-87
2024/01/25 09:18:41;;;;;;;13.63;3.80;;;;;;;;;;1741363;28;20214;-87
2024/01/25 09:19:32;;;;;;;12.68;3.28;;;;;;;;;;1740998;28;20393;-87
2024/01/25 09:20:25;;;;;;;14.73;4.20;;;;;;;;;;1740980;28;20207;-87
2024/01/25 09:21:16;;;;;;;10.52;4.07;;;;;;;;;;1741841;28;20265;-87
2024/01/25 09:22:09;;;;;;;12.73;3.35;;;;;;;;;;1741675;28;20201;-87
2024/01/25 09:23:03;;;;;;;14.05;4.28;;;;;;;;;;1738795;28;20195;-87
2024/01/25 09:23:54;;;;;;;15.07;3.67;;;;;;;;;;1742676;28;20224;-87
2024/01/25 09:24:46;;;;;;;11.65;2.85;;;;;;;;;;1743904;28;20182;-87
2024/01/25 09:25:38;;;;;;;10.73;3.50;;;;;;;;;;1741383;28;20199;-86
2024/01/25 09:26:29;;;;;;;11.90;3.92;;;;;;;;;;1737480;28;20678;-87
2024/01/25 09:27:21;;;;;;;10.32;3.42;;;;;;;;;;1737655;28;20192;-89
2024/01/25 09:28:13;;;;;;;13.15;3.67;;;;;;;;;;1742434;28;20203;-85
2024/01/25 09:29:04;;;;;;;13.55;3.67;;;;;;;;;;1743288;28;20269;-88
2024/01/25 09:29:56;;;;;;;13.50;2.85;;;;;;;;;;1738415;28;20191;-87
2024/01/25 09:30:47;;;;;;;11.43;3.13;;;;;;;;;;1740254;28;20210;-87
2024/01/25 09:31:38;;;;;;;15.45;3.78;;;;;;;;;;1740876;28;20202;-86
2024/01/25 09:32:30;;;;;;;11.18;3.30;;;;;;;;;;1740616;28;20191;-86
2024/01/25 09:33:22;;;;;;;11.48;3.10;;;;;;;;;;1738557;28;20210;-87
2024/01/25 09:34:14;;;;;;;14.25;4.13;;;;;;;;;;1737495;28;20236;-88
2024/01/25 09:35:05;;;;;;;14.07;4.25;;;;;;;;;;1738283;28;20200;-87
2024/01/25 09:35:57;;;;;;;14.52;3.85;;;;;;;;;;1737232;28;20195;-86
2024/01/25 09:36:48;;;;;;;14.50;5.13;;;;;;;;;;1738362;28;20207;-85
2024/01/25 09:37:41;;;;;;;11.15;3.80;;;;;;;;;;1740591;28;20596;-87
2024/01/25 09:38:35;;;;;;;15.00;4.47;;;;;;;;;;1739443;28;20743;-87
2024/01/25 09:39:26;;;;;;;17.60;4.35;;;;;;;;;;1737121;28;20261;-87
2024/01/25 09:40:20;;;;;;;11.40;3.60;;;;;;;;;;1737815;28;20201;-87
2024/01/25 09:41:11;;;;;;;10.20;3.30;;;;;;;;;;1737414;28;20239;-87
2024/01/25 09:42:03;;;;;;;10.57;3.88;;;;;;;;;;1738516;28;20617;-87
2024/01/25 09:42:56;;;;;;;8.32;3.03;;;;;;;;;;1739313;28;20199;-87
2024/01/25 09:43:47;;;;;;;12.65;3.67;;;;;;;;;;1737188;28;20667;-87
2024/01/25 09:44:38;;;;;;;12.07;3.53;;;;;;;;;;1739966;28;20195;-87
2024/01/25 09:45:32;;;;;;;16.83;4.07;;;;;;;;;;1738238;28;20574;-87
2024/01/25 09:46:23;;;;;;;15.63;4.30;;;;;;;;;;1737586;28;20211;-87
2024/01/25 09:47:16;;;;;;;14.50;3.60;;;;;;;;;;1737342;28;20231;-87
2024/01/25 09:48:08;;;;;;;13.60;4.22;;;;;;;;;;1738276;28;20192;-86
2024/01/25 09:49:00;;;;;;;14.10;3.75;;;;;;;;;;1738146;28;20571;-87
2024/01/25 09:49:51;;;;;;;13.40;4.40;;;;;;;;;;1738287;28;20633;-87
2024/01/25 09:50:43;;;;;;;13.82;4.32;;;;;;;;;;1738213;28;20195;-87
2024/01/25 09:51:37;;;;;;;13.65;4.55;;;;;;;;;;1737137;28;20207;-87
2024/01/25 09:52:29;;;;;;;15.27;5.93;;;;;;;;;;1740748;28;20205;-87
2024/01/25 09:53:22;;;;;;;17.95;4.97;;;;;;;;;;1736925;28;20567;-87
2024/01/25 09:54:14;;;;;;;12.40;5.03;;;;;;;;;;1739496;28;20252;-87
2024/01/25 09:55:08;;;;;;;11.00;4.40;;;;;;;;;;1736843;28;20234;-86
2024/01/25 09:56:04;;;;;;;14.90;4.00;;;;;;;;;;1739172;28;20203;-86
2024/01/25 09:56:56;;;;;;;14.85;4.38;;;;;;;;;;1737700;28;20187;-86
2024/01/25 09:57:50;;;;;;;12.43;3.45;;;;;;;;;;1738021;28;20324;-86
2024/01/25 09:58:45;;;;;;;13.13;3.90;;;;;;;;;;1736603;28;20562;-86
2024/01/25 09:59:36;;;;;;;18.92;3.47;;;;;;;;;;1739672;28;20195;-86
2024/01/25 10:00:28;;;;;;;12.38;3.47;;;;;;;;;;1737208;28;20553;-86
2024/01/25 10:01:20;;;;;;;12.68;3.28;;;;;;;;;;1739219;28;20221;-86
2024/01/25 10:02:11;;;;;;;14.38;3.95;;;;;;;;;;1737734;28;20604;-86
2024/01/25 10:03:04;;;;;;;12.98;3.83;;;;;;;;;;1739395;28;20347;-85
2024/01/25 10:03:56;;;;;;;8.27;2.67;;;;;;;;;;1739407;28;20203;-86
2024/01/25 10:04:49;;;;;;;13.40;3.63;;;;;;;;;;1738513;28;20205;-86
2024/01/25 10:05:41;;;;;;;11.73;3.38;;;;;;;;;;1738026;28;20226;-86
2024/01/25 10:06:33;;;;;;;8.85;3.03;;;;;;;;;;1738000;28;20214;-86
2024/01/25 10:07:37;;;;;;;15.57;3.97;;;;;;;;;;1738559;28;20245;-86
2024/01/25 10:08:29;;;;;;;12.85;3.75;;;;;;;;;;1736601;28;20269;-86
2024/01/25 10:09:22;;;;;;;11.80;3.42;;;;;;;;;;1739192;28;20207;-86
2024/01/25 10:10:15;;;;;;;12.25;3.30;;;;;;;;;;1737807;28;20267;-86
2024/01/25 10:11:08;;;;;;;13.95;2.92;;;;;;;;;;1737425;28;20198;-85
2024/01/25 10:11:59;;;;;;;10.75;3.08;;;;;;;;;;1737756;28;20200;-86
2024/01/25 10:12:51;;;;;;;13.60;3.40;;;;;;;;;;1738007;28;20192;-86
2024/01/25 10:13:43;;;;;;;9.75;3.30;;;;;;;;;;1737345;28;20203;-86
2024/01/25 10:14:34;;;;;;;10.98;3.00;;;;;;;;;;1737858;28;20188;-85
2024/01/25 10:15:26;;;;;;;12.55;3.50;;;;;;;;;;1737724;28;20222;-85
2024/01/25 10:16:18;;;;;;;16.52;3.53;;;;;;;;;;1737464;28;20207;-86
2024/01/25 10:17:09;;;;;;;16.80;3.45;;;;;;;;;;1739951;28;20195;-86
2024/01/25 10:18:01;;;;;;;11.02;3.90;;;;;;;;;;1736770;28;20281;-86
2024/01/25 10:18:52;;;;;;;18.38;3.80;;;;;;;;;;1739204;28;20215;-85
2024/01/25 10:19:43;;;;;;;11.07;3.47;;;;;;;;;;1740516;28;20187;-85
2024/01/25 10:20:36;;;;;;;17.55;4.25;;;;;;;;;;1740251;28;20226;-85
2024/01/25 10:21:27;;;;;;;8.68;2.92;;;;;;;;;;1740694;28;20209;-85
2024/01/25 10:22:18;;;;;;;10.82;3.50;;;;;;;;;;1740933;28;20664;-85
2024/01/25 10:23:12;;;;;;;10.48;3.78;;;;;;;;;;1740691;28;20210;-85
2024/01/25 10:24:03;;;;;;;13.65;3.50;;;;;;;;;;1740834;28;20606;-85
2024/01/25 10:24:56;;;;;;;14.05;3.83;;;;;;;;;;1740741;28;20215;-85
2024/01/25 10:25:48;;;;;;;10.90;3.45;;;;;;;;;;1740975;28;20259;-86
2024/01/25 10:26:42;;;;;;;13.18;3.67;;;;;;;;;;1741021;28;20211;-86
2024/01/25 10:27:34;;;;;;;12.52;3.58;;;;;;;;;;1741704;28;20592;-86
2024/01/25 10:28:25;;;;;;;9.38;2.85;;;;;;;;;;1742173;28;20199;-86
2024/01/25 10:29:17;;;;;;;13.85;4.70;;;;;;;;;;1742224;28;20203;-86
2024/01/25 10:30:10;;;;;;;10.82;3.40;;;;;;;;;;1742268;28;20214;-86
2024/01/25 10:31:04;;;;;;;13.05;3.70;;;;;;;;;;1741533;28;20664;-86
2024/01/25 10:31:56;;;;;;;10.13;3.17;;;;;;;;;;1742039;28;20211;-86
2024/01/25 10:32:47;;;;;;;13.43;3.80;;;;;;;;;;1742398;28;20203;-86
2024/01/25 10:33:39;;;;;;;13.48;3.50;;;;;;;;;;1740629;28;20201;-86
2024/01/25 10:34:32;;;;;;;9.68;3.40;;;;;;;;;;1741855;28;20221;-86
2024/01/25 10:35:23;;;;;;;11.65;3.70;;;;;;;;;;1742104;28;20210;-86
2024/01/25 10:36:14;;;;;;;16.27;4.22;;;;;;;;;;1741992;28;20203;-86
2024/01/25 10:37:07;;;;;;;15.55;3.38;;;;;;;;;;1742206;28;20277;-86
2024/01/25 10:37:58;;;;;;;16.20;3.75;;;;;;;;;;1742049;28;20242;-86
2024/01/25 10:38:50;;;;;;;10.57;3.08;;;;;;;;;;1742369;28;20199;-86
2024/01/25 10:39:43;;;;;;;12.23;2.90;;;;;;;;;;1740806;28;20314;-86
2024/01/25 10:40:36;;;;;;;9.05;2.90;;;;;;;;;;1738726;28;20569;-85
2024/01/25 10:41:27;;;;;;;12.48;2.95;;;;;;;;;;1736454;28;20286;-86
2024/01/25 10:42:19;;;;;;;12.10;3.13;;;;;;;;;;1742234;28;20187;-85
2024/01/25 10:43:11;;;;;;;16.35;3.10;;;;;;;;;;1742092;28;20798;-86
2024/01/25 10:44:03;;;;;;;11.43;3.80;;;;;;;;;;1742063;28;20199;-86
2024/01/25 10:44:55;;;;;;;9.70;3.78;;;;;;;;;;1742228;28;20576;-86
2024/01/25 10:45:47;;;;;;;12.85;3.13;;;;;;;;;;1742199;28;20207;-86
2024/01/25 10:46:39;;;;;;;13.52;3.15;;;;;;;;;;1742383;28;20218;-85
2024/01/25 10:47:35;;;;;;;13.00;3.58;;;;;;;;;;1742032;28;20290;-86
2024/01/25 10:48:26;;;;;;;12.52;3.85;;;;;;;;;;1742253;28;20207;-85
2024/01/25 10:49:18;;;;;;;10.13;3.10;;;;;;;;;;1742168;28;20195;-85
2024/01/25 10:50:11;;;;;;;11.13;3.47;;;;;;;;;;1742165;28;20290;-85
2024/01/25 10:51:02;;;;;;;13.82;3.63;;;;;;;;;;1741425;28;20290;-85
2024/01/25 10:51:54;;;;;;;10.45;3.28;;;;;;;;;;1741990;28;20211;-85
2024/01/25 10:52:46;;;;;;;9.95;3.45;;;;;;;;;;1741908;28;20283;-86
2024/01/25 10:53:37;;;;;;;11.25;3.83;;;;;;;;;;1741956;28;20218;-85
2024/01/25 10:54:29;;;;;;;13.15;3.28;;;;;;;;;;1742115;28;20621;-85
2024/01/25 10:55:21;;;;;;;9.20;3.13;;;;;;;;;;1742027;28;20207;-86
2024/01/25 10:56:14;;;;;;;13.95;3.60;;;;;;;;;;1742172;28;20195;-85
2024/01/25 10:57:06;;;;;;;11.55;3.50;;;;;;;;;;1742090;28;20210;-85
2024/01/25 10:57:58;;;;;;;12.18;3.90;;;;;;;;;;1741922;28;20264;-85
2024/01/25 10:58:49;;;;;;;11.20;3.55;;;;;;;;;;1741928;28;20191;-86
2024/01/25 10:59:41;;;;;;;13.63;3.10;;;;;;;;;;1742132;28;20207;-86
2024/01/25 11:00:33;;;;;;;11.65;2.90;;;;;;;;;;1741372;28;20210;-85
2024/01/25 11:01:24;;;;;;;12.75;4.28;;;;;;;;;;1741990;28;20199;-85
2024/01/25 11:02:16;;;;;;;15.65;3.30;;;;;;;;;;1742426;28;20264;-85
2024/01/25 11:03:07;;;;;;;9.05;2.75;;;;;;;;;;1742052;28;20214;-85
2024/01/25 11:03:59;;;;;;;14.70;3.40;;;;;;;;;;1741890;28;20199;-85
2024/01/25 11:04:53;;;;;;;10.60;3.20;;;;;;;;;;1742035;28;20207;-85
2024/01/25 11:05:45;;;;;;;9.60;3.40;;;;;;;;;;1742084;28;20191;-85
2024/01/25 11:06:37;;;;;;;17.20;3.33;;;;;;;;;;1741988;28;20207;-85
2024/01/25 11:07:28;;;;;;;8.93;3.13;;;;;;;;;;1742103;28;20203;-85